createdAt,value
2019-05-26T00:02:22.987Z,53.98
2019-05-26T00:04:49.633Z,53.75
2019-05-26T00:07:29.749Z,53.87
2019-05-26T00:09:44.564Z,53.79
2019-05-26T00:12:15.751Z,53.75
2019-05-26T00:14:39.679Z,53.79
2019-05-26T00:17:06.270Z,54.19
2019-05-26T00:19:32.902Z,54.42
2019-05-26T00:21:59.529Z,54.47
2019-05-26T00:24:26.132Z,54.72
2019-05-26T00:26:52.841Z,54.90
2019-05-26T00:29:19.443Z,54.85
2019-05-26T00:31:46.036Z,55.05
2019-05-26T00:34:12.650Z,55.18
2019-05-26T00:36:39.254Z,55.20
2019-05-26T00:39:06.774Z,55.01
2019-05-26T00:41:33.374Z,55.05
2019-05-26T00:43:59.977Z,55.04
2019-05-26T00:46:26.786Z,55.08
2019-05-26T00:48:53.553Z,55.12
2019-05-26T00:51:20.180Z,55.35
2019-05-26T00:53:46.812Z,55.22
2019-05-26T00:56:13.393Z,55.33
2019-05-26T00:58:40.042Z,55.37
2019-05-26T01:01:06.678Z,55.55
2019-05-26T01:03:33.299Z,55.41
2019-05-26T01:05:59.892Z,55.63
2019-05-26T01:08:26.511Z,55.64
2019-05-26T01:10:53.134Z,55.76
2019-05-26T01:13:19.750Z,55.78
2019-05-26T01:15:46.347Z,55.72
2019-05-26T01:18:12.983Z,55.90
2019-05-26T01:20:39.615Z,55.90
2019-05-26T01:23:06.269Z,56.07
2019-05-26T01:25:32.851Z,56.14
2019-05-26T01:27:59.500Z,56.20
2019-05-26T01:30:26.123Z,56.32
2019-05-26T01:32:52.722Z,56.51
2019-05-26T01:35:19.337Z,56.45
2019-05-26T01:37:45.956Z,56.63
2019-05-26T01:40:12.542Z,56.59
2019-05-26T01:42:39.181Z,56.60
2019-05-26T01:45:05.764Z,56.46
2019-05-26T01:47:32.409Z,56.58
2019-05-26T01:49:59.010Z,56.57
2019-05-26T01:52:25.665Z,56.73
2019-05-26T01:54:52.294Z,56.74
2019-05-26T01:57:18.895Z,56.79
2019-05-26T01:59:45.485Z,56.77
2019-05-26T02:02:12.142Z,56.85
2019-05-26T02:04:38.793Z,56.96
2019-05-26T02:07:05.447Z,56.68
2019-05-26T02:09:32.048Z,56.84
2019-05-26T02:11:58.639Z,56.80
2019-05-26T02:14:25.356Z,57.06
2019-05-26T02:16:52.031Z,57.27
2019-05-26T02:19:18.675Z,57.28
2019-05-26T02:21:45.271Z,57.33
2019-05-26T02:24:11.862Z,57.32
2019-05-26T02:26:38.553Z,57.37
2019-05-26T02:29:05.168Z,57.33
2019-05-26T02:31:31.787Z,57.46
2019-05-26T02:33:58.381Z,57.49
2019-05-26T02:36:25.017Z,57.54
2019-05-26T02:39:01.822Z,57.58
2019-05-26T02:41:19.976Z,57.54
2019-05-26T02:43:46.614Z,57.60
2019-05-26T02:46:13.221Z,57.70
2019-05-26T02:48:39.845Z,57.83
2019-05-26T02:51:06.439Z,57.86
2019-05-26T02:53:33.051Z,57.87
2019-05-26T02:55:59.648Z,57.79
2019-05-26T02:58:26.284Z,57.76
2019-05-26T03:00:52.910Z,57.74
2019-05-26T03:03:19.545Z,57.67
2019-05-26T03:05:46.193Z,57.71
2019-05-26T03:08:12.786Z,57.75
2019-05-26T03:10:39.379Z,57.94
2019-05-26T03:13:06.017Z,57.96
2019-05-26T03:15:32.610Z,58.14
2019-05-26T03:17:59.288Z,58.15
2019-05-26T03:20:25.917Z,58.26
2019-05-26T03:22:52.556Z,58.36
2019-05-26T03:25:19.346Z,58.35
2019-05-26T03:27:45.961Z,58.48
2019-05-26T03:30:12.824Z,58.70
2019-05-26T03:32:39.578Z,58.81
2019-05-26T03:35:06.312Z,58.84
2019-05-26T03:37:33.044Z,58.95
2019-05-26T03:39:59.634Z,59.23
2019-05-26T03:42:26.223Z,59.22
2019-05-26T03:44:52.842Z,59.25
2019-05-26T03:47:19.471Z,59.50
2019-05-26T03:49:46.120Z,59.73
2019-05-26T03:52:12.716Z,59.90
2019-05-26T03:54:39.311Z,59.79
2019-05-26T03:57:05.949Z,59.61
2019-05-26T03:59:32.570Z,59.47
2019-05-26T04:01:59.209Z,59.50
2019-05-26T04:04:25.822Z,59.49
2019-05-26T04:06:52.416Z,59.87
2019-05-26T04:09:19.071Z,60.00
2019-05-26T04:11:45.731Z,60.11
2019-05-26T04:14:12.330Z,60.20
2019-05-26T04:16:38.965Z,60.33
2019-05-26T04:19:05.558Z,60.34
2019-05-26T04:21:32.178Z,60.38
2019-05-26T04:23:58.791Z,60.51
2019-05-26T04:26:25.396Z,60.67
2019-05-26T04:28:52.092Z,60.74
2019-05-26T04:31:18.693Z,60.94
2019-05-26T04:33:45.330Z,60.88
2019-05-26T04:36:11.921Z,60.79
2019-05-26T04:38:38.510Z,60.64
2019-05-26T04:41:05.108Z,60.59
2019-05-26T04:43:31.748Z,60.42
2019-05-26T04:45:58.364Z,60.16
2019-05-26T04:48:24.973Z,60.12
2019-05-26T04:50:51.669Z,60.12
2019-05-26T04:53:18.320Z,60.08
2019-05-26T04:55:44.980Z,60.02
2019-05-26T04:58:11.689Z,59.92
2019-05-26T05:00:38.295Z,59.91
2019-05-26T05:03:04.897Z,59.94
2019-05-26T05:05:31.523Z,59.97
2019-05-26T05:07:58.115Z,59.92
2019-05-26T05:10:41.026Z,60.04
2019-05-26T05:12:53.073Z,59.97
2019-05-26T05:15:19.708Z,59.81
2019-05-26T05:17:46.367Z,59.71
2019-05-26T05:20:13.023Z,59.55
2019-05-26T05:22:39.656Z,59.49
2019-05-26T05:25:13.908Z,59.52
2019-05-26T05:27:34.600Z,59.47
2019-05-26T05:30:01.216Z,59.44
2019-05-26T05:32:27.816Z,59.37
2019-05-26T05:34:54.447Z,59.29
2019-05-26T05:37:24.924Z,59.18
2019-05-26T05:39:49.445Z,58.95
2019-05-26T05:42:16.080Z,58.72
2019-05-26T05:44:42.677Z,58.52
2019-05-26T05:47:09.313Z,58.38
2019-05-26T05:49:35.910Z,58.27
2019-05-26T05:52:02.562Z,58.13
2019-05-26T05:54:29.160Z,57.99
2019-05-26T05:56:55.957Z,57.84
2019-05-26T05:59:22.656Z,57.89
2019-05-26T06:01:49.258Z,57.92
2019-05-26T06:04:15.862Z,57.82
2019-05-26T06:06:42.479Z,57.61
2019-05-26T06:09:09.071Z,57.25
2019-05-26T06:11:35.822Z,56.68
2019-05-26T06:14:02.416Z,56.45
2019-05-26T06:16:29.006Z,56.27
2019-05-26T06:18:55.618Z,56.18
2019-05-26T06:21:22.211Z,56.15
2019-05-26T06:23:48.810Z,56.30
2019-05-26T06:26:15.456Z,56.51
2019-05-26T06:28:42.053Z,56.57
2019-05-26T06:31:08.694Z,56.75
2019-05-26T06:33:35.283Z,56.60
2019-05-26T06:36:01.938Z,56.61
2019-05-26T06:38:28.630Z,56.57
2019-05-26T06:40:55.229Z,56.55
2019-05-26T06:43:21.845Z,56.69
2019-05-26T06:45:48.577Z,56.91
2019-05-26T06:48:15.214Z,56.92
2019-05-26T06:50:41.857Z,56.88
2019-05-26T06:53:08.461Z,56.90
2019-05-26T06:55:36.027Z,56.78
2019-05-26T06:58:02.626Z,56.50
2019-05-26T07:00:29.220Z,56.51
2019-05-26T07:02:55.834Z,56.46
2019-05-26T07:05:22.423Z,56.28
2019-05-26T07:07:49.055Z,56.09
2019-05-26T07:10:15.697Z,55.95
2019-05-26T07:12:42.291Z,55.86
2019-05-26T07:15:08.917Z,55.71
2019-05-26T07:17:35.504Z,55.56
2019-05-26T07:20:02.136Z,55.31
2019-05-26T07:22:28.719Z,54.99
2019-05-26T07:24:55.347Z,54.84
2019-05-26T07:27:21.996Z,54.58
2019-05-26T07:29:48.619Z,54.31
2019-05-26T07:32:15.223Z,54.23
2019-05-26T07:34:41.835Z,54.26
2019-05-26T07:37:08.468Z,54.24
2019-05-26T07:39:35.054Z,54.18
2019-05-26T07:42:09.856Z,54.29
2019-05-26T07:44:30.100Z,54.38
2019-05-26T07:46:56.730Z,54.26
2019-05-26T07:49:23.386Z,53.95
2019-05-26T07:51:49.980Z,53.84
2019-05-26T07:54:25.238Z,53.89
2019-05-26T07:56:44.943Z,53.74
2019-05-26T07:59:11.672Z,53.53
2019-05-26T08:01:38.302Z,53.38
2019-05-26T08:04:04.901Z,53.36
2019-05-26T08:06:31.529Z,53.13
2019-05-26T08:08:58.166Z,53.00
2019-05-26T08:11:24.974Z,52.77
2019-05-26T08:13:51.578Z,52.70
2019-05-26T08:16:18.232Z,52.33
2019-05-26T08:18:44.840Z,52.23
2019-05-26T08:21:11.476Z,51.97
2019-05-26T08:23:38.076Z,51.52
2019-05-26T08:26:04.728Z,51.61
2019-05-26T08:28:31.354Z,51.42
2019-05-26T08:30:57.950Z,51.09
2019-05-26T08:33:24.589Z,51.00
2019-05-26T08:35:51.226Z,50.62
2019-05-26T08:38:17.822Z,49.70
2019-05-26T08:40:44.439Z,49.70
2019-05-26T08:43:11.043Z,49.69
2019-05-26T08:45:37.800Z,49.64
2019-05-26T08:48:04.395Z,49.05
2019-05-26T08:50:34.107Z,48.44
2019-05-26T08:52:59.349Z,48.34
2019-05-26T08:55:25.935Z,47.98
2019-05-26T08:57:52.566Z,48.05
2019-05-26T09:00:19.164Z,48.17
2019-05-26T09:02:45.800Z,47.72
2019-05-26T09:05:12.525Z,47.51
2019-05-26T09:07:39.123Z,47.02
2019-05-26T09:10:05.775Z,46.52
2019-05-26T09:12:32.373Z,46.22
2019-05-26T09:14:58.956Z,45.66
2019-05-26T09:17:25.584Z,45.27
2019-05-26T09:19:52.181Z,44.99
2019-05-26T09:22:18.800Z,44.60
2019-05-26T09:24:45.398Z,44.15
2019-05-26T09:27:12.032Z,44.12
2019-05-26T09:29:38.660Z,44.21
2019-05-26T09:32:05.276Z,44.28
2019-05-26T09:34:31.896Z,44.07
2019-05-26T09:36:58.491Z,43.78
2019-05-26T09:39:25.131Z,43.58
2019-05-26T09:41:51.772Z,43.39
2019-05-26T09:44:18.374Z,43.23
2019-05-26T09:46:45.010Z,42.81
2019-05-26T09:49:11.625Z,41.71
2019-05-26T09:51:38.224Z,41.07
2019-05-26T09:54:04.875Z,40.16
2019-05-26T09:56:33.253Z,39.80
2019-05-26T09:58:59.788Z,39.58
2019-05-26T10:01:26.665Z,39.34
2019-05-26T10:03:53.245Z,39.00
2019-05-26T10:06:19.899Z,38.71
2019-05-26T10:08:46.495Z,38.69
2019-05-26T10:11:13.099Z,38.62
2019-05-26T10:13:39.760Z,38.29
2019-05-26T10:16:06.360Z,37.78
2019-05-26T10:18:32.965Z,36.95
2019-05-26T10:20:59.599Z,36.46
2019-05-26T10:23:26.216Z,35.88
2019-05-26T10:25:52.822Z,35.19
2019-05-26T10:28:19.425Z,34.57
2019-05-26T10:30:46.061Z,33.17
2019-05-26T10:33:13.011Z,32.17
2019-05-26T10:35:39.719Z,31.19
2019-05-26T10:38:06.406Z,30.69
2019-05-26T10:40:33.052Z,29.63
2019-05-26T10:42:59.642Z,28.57
2019-05-26T10:45:26.311Z,27.57
2019-05-26T10:47:52.911Z,26.64
2019-05-26T10:50:19.500Z,26.09
2019-05-26T10:52:46.105Z,25.49
2019-05-26T10:55:12.691Z,24.31
2019-05-26T10:57:39.300Z,24.01
2019-05-26T11:00:06.007Z,23.15
2019-05-26T11:02:32.631Z,22.96
2019-05-26T11:04:59.223Z,22.98
2019-05-26T11:07:26.965Z,22.98
2019-05-26T11:09:53.703Z,23.31
2019-05-26T11:12:20.362Z,22.89
2019-05-26T11:14:46.948Z,22.73
2019-05-26T11:17:13.540Z,22.44
2019-05-26T11:19:40.175Z,22.02
2019-05-26T11:22:06.768Z,21.78
2019-05-26T11:24:33.398Z,21.54
2019-05-26T11:27:10.191Z,21.04
2019-05-26T11:29:28.389Z,20.76
2019-05-26T11:31:55.011Z,20.76
2019-05-26T11:34:21.595Z,20.58
2019-05-26T11:36:48.283Z,20.12
2019-05-26T11:39:16.773Z,20.58
2019-05-26T11:41:43.411Z,20.46
2019-05-26T11:44:17.813Z,20.61
2019-05-26T11:46:38.399Z,20.30
2019-05-26T11:49:05.048Z,19.93
2019-05-26T11:51:31.716Z,19.57
2019-05-26T11:53:58.334Z,19.10
2019-05-26T11:56:25.049Z,18.91
2019-05-26T11:58:51.649Z,18.71
2019-05-26T12:01:18.262Z,18.20
2019-05-26T12:03:44.983Z,17.44
2019-05-26T12:06:11.578Z,16.94
2019-05-26T12:08:38.198Z,16.61
2019-05-26T12:11:04.835Z,16.10
2019-05-26T12:13:31.505Z,16.00
2019-05-26T12:15:58.112Z,15.74
2019-05-26T12:18:24.722Z,15.39
2019-05-26T12:20:51.379Z,15.20
2019-05-26T12:23:17.968Z,14.88
2019-05-26T12:25:44.552Z,14.46
2019-05-26T12:28:11.225Z,14.25
2019-05-26T12:30:37.810Z,13.87
2019-05-26T12:33:04.404Z,13.58
2019-05-26T12:35:31.038Z,13.42
2019-05-26T12:37:57.680Z,13.69
2019-05-26T12:40:24.331Z,13.99
2019-05-26T12:42:50.922Z,14.36
2019-05-26T12:45:17.516Z,14.48
2019-05-26T12:47:44.142Z,15.07
2019-05-26T12:50:10.744Z,15.04
2019-05-26T12:52:37.394Z,14.73
2019-05-26T12:55:03.995Z,14.52
2019-05-26T12:57:30.591Z,14.24
2019-05-26T12:59:57.209Z,14.00
2019-05-26T13:02:23.835Z,13.55
2019-05-26T13:04:50.467Z,13.21
2019-05-26T13:07:17.067Z,12.82
2019-05-26T13:09:43.678Z,12.56
2019-05-26T13:12:10.302Z,12.39
2019-05-26T13:14:36.947Z,12.73
2019-05-26T13:17:03.555Z,12.37
2019-05-26T13:19:30.319Z,12.79
2019-05-26T13:21:56.947Z,12.59
2019-05-26T13:24:23.574Z,12.85
2019-05-26T13:26:50.205Z,13.39
2019-05-26T13:29:16.822Z,13.67
2019-05-26T13:31:43.444Z,14.16
2019-05-26T13:34:10.055Z,14.64
2019-05-26T13:36:36.651Z,14.87
2019-05-26T13:39:03.272Z,14.86
2019-05-26T13:41:29.896Z,14.83
2019-05-26T13:43:56.491Z,14.88
2019-05-26T13:46:23.097Z,14.84
2019-05-26T13:48:49.719Z,14.76
2019-05-26T13:51:16.349Z,15.15
2019-05-26T13:53:42.947Z,15.38
2019-05-26T13:56:09.580Z,15.67
2019-05-26T13:58:36.248Z,16.02
2019-05-26T14:01:03.021Z,16.55
2019-05-26T14:03:29.608Z,16.96
2019-05-26T14:05:56.244Z,17.19
2019-05-26T14:08:22.883Z,17.37
2019-05-26T14:10:49.562Z,17.85
2019-05-26T14:13:16.154Z,18.09
2019-05-26T14:15:42.801Z,18.51
2019-05-26T14:18:09.424Z,18.95
2019-05-26T14:20:36.021Z,19.26
2019-05-26T14:23:02.747Z,19.47
2019-05-26T14:25:29.505Z,19.79
2019-05-26T14:27:56.096Z,20.31
2019-05-26T14:30:22.696Z,20.82
2019-05-26T14:32:49.344Z,21.17
2019-05-26T14:35:16.020Z,21.60
2019-05-26T14:37:42.679Z,21.90
2019-05-26T14:40:09.314Z,21.96
2019-05-26T14:42:36.002Z,21.63
2019-05-26T14:45:04.125Z,21.07
2019-05-26T14:47:31.114Z,21.16
2019-05-26T14:49:57.754Z,21.39
2019-05-26T14:52:24.336Z,21.64
2019-05-26T14:54:50.958Z,21.73
2019-05-26T14:57:17.543Z,21.74
2019-05-26T14:59:44.141Z,21.96
2019-05-26T15:02:10.774Z,22.29
2019-05-26T15:04:37.364Z,22.67
2019-05-26T15:07:04.008Z,23.07
2019-05-26T15:09:30.648Z,23.58
2019-05-26T15:11:57.261Z,24.09
2019-05-26T15:14:23.910Z,24.44
2019-05-26T15:16:50.576Z,24.84
2019-05-26T15:19:17.737Z,25.04
2019-05-26T15:21:44.318Z,25.08
2019-05-26T15:24:10.966Z,25.11
2019-05-26T15:26:37.613Z,25.10
2019-05-26T15:29:04.209Z,25.13
2019-05-26T15:31:30.799Z,25.55
2019-05-26T15:33:57.436Z,25.90
2019-05-26T15:36:24.037Z,26.08
2019-05-26T15:38:50.646Z,26.16
2019-05-26T15:41:17.358Z,26.31
2019-05-26T15:43:43.998Z,26.03
2019-05-26T15:46:24.148Z,26.01
2019-05-26T15:48:38.972Z,26.00
2019-05-26T15:51:05.602Z,26.06
2019-05-26T15:53:32.195Z,26.23
2019-05-26T15:55:58.817Z,26.43
2019-05-26T15:58:25.450Z,26.60
2019-05-26T16:00:52.083Z,26.79
2019-05-26T16:03:18.723Z,27.02
2019-05-26T16:05:45.359Z,27.27
2019-05-26T16:08:12.003Z,27.35
2019-05-26T16:10:38.597Z,27.50
2019-05-26T16:13:05.284Z,27.54
2019-05-26T16:15:31.971Z,27.81
2019-05-26T16:17:58.579Z,28.01
2019-05-26T16:20:25.215Z,28.10
2019-05-26T16:22:51.948Z,28.11
2019-05-26T16:25:18.542Z,28.16
2019-05-26T16:27:45.148Z,28.25
2019-05-26T16:30:11.794Z,28.26
2019-05-26T16:32:38.494Z,28.50
2019-05-26T16:35:05.114Z,28.76
2019-05-26T16:37:31.782Z,28.70
2019-05-26T16:39:58.406Z,29.05
2019-05-26T16:42:25.071Z,29.10
2019-05-26T16:44:51.700Z,29.34
2019-05-26T16:47:18.368Z,29.56
2019-05-26T16:49:45.012Z,29.69
2019-05-26T16:52:11.602Z,30.05
2019-05-26T16:54:38.190Z,30.21
2019-05-26T16:57:04.837Z,30.23
2019-05-26T16:59:31.442Z,30.33
2019-05-26T17:01:58.141Z,30.51
2019-05-26T17:04:24.789Z,30.60
2019-05-26T17:06:51.392Z,30.96
2019-05-26T17:09:18.021Z,31.35
2019-05-26T17:11:44.668Z,31.81
2019-05-26T17:14:11.274Z,32.08
2019-05-26T17:16:37.910Z,32.55
2019-05-26T17:19:04.578Z,32.98
2019-05-26T17:21:31.275Z,33.85
2019-05-26T17:23:57.901Z,33.29
2019-05-26T17:26:24.512Z,34.10
2019-05-26T17:28:51.206Z,33.83
2019-05-26T17:31:19.671Z,34.11
2019-05-26T17:33:46.340Z,34.56
2019-05-26T17:36:12.941Z,34.32
2019-05-26T17:38:39.606Z,34.69
2019-05-26T17:41:06.235Z,34.77
2019-05-26T17:43:32.866Z,35.12
2019-05-26T17:45:59.480Z,35.13
2019-05-26T17:48:26.076Z,35.25
2019-05-26T17:50:52.703Z,35.36
2019-05-26T17:53:19.351Z,35.83
2019-05-26T17:55:45.941Z,35.80
2019-05-26T17:58:12.547Z,36.15
2019-05-26T18:00:39.176Z,36.89
2019-05-26T18:03:05.815Z,37.24
2019-05-26T18:05:32.430Z,37.28
2019-05-26T18:07:59.054Z,37.50
2019-05-26T18:10:25.744Z,38.00
2019-05-26T18:12:52.336Z,38.12
2019-05-26T18:15:19.133Z,38.46
2019-05-26T18:17:47.236Z,38.63
2019-05-26T18:20:14.095Z,38.81
2019-05-26T18:22:40.741Z,38.96
2019-05-26T18:25:07.525Z,39.24
2019-05-26T18:27:34.245Z,39.40
2019-05-26T18:30:02.822Z,39.56
2019-05-26T18:32:29.486Z,39.71
2019-05-26T18:34:56.125Z,39.99
2019-05-26T18:37:22.778Z,40.22
2019-05-26T18:39:49.374Z,40.31
2019-05-26T18:42:15.962Z,40.54
2019-05-26T18:44:42.576Z,40.56
2019-05-26T18:47:09.251Z,40.79
2019-05-26T18:49:35.885Z,41.00
2019-05-26T18:52:02.682Z,40.97
2019-05-26T18:54:29.285Z,41.38
2019-05-26T18:56:55.911Z,41.37
2019-05-26T18:59:22.568Z,41.51
2019-05-26T19:01:49.238Z,41.57
2019-05-26T19:04:15.830Z,41.89
2019-05-26T19:06:42.412Z,41.83
2019-05-26T19:09:09.252Z,41.93
2019-05-26T19:11:35.844Z,42.16
2019-05-26T19:14:02.440Z,42.09
2019-05-26T19:16:29.076Z,42.13
2019-05-26T19:18:55.678Z,42.31
2019-05-26T19:21:22.289Z,42.44
2019-05-26T19:26:38.569Z,42.41
2019-05-26T19:29:05.226Z,42.43
2019-05-26T19:31:31.819Z,42.51
2019-05-26T19:33:58.418Z,42.53
2019-05-26T19:36:25.195Z,42.61
2019-05-26T19:38:51.876Z,42.60
2019-05-26T19:41:18.526Z,42.75
2019-05-26T19:43:45.145Z,42.85
2019-05-26T19:46:11.785Z,42.95
2019-05-26T19:48:38.489Z,43.30
2019-05-26T19:51:05.109Z,43.23
2019-05-26T19:53:31.713Z,43.26
2019-05-26T19:55:58.352Z,43.28
2019-05-26T19:58:28.448Z,43.32
2019-05-26T20:00:53.303Z,43.56
2019-05-26T20:03:19.929Z,43.57
2019-05-26T20:05:46.520Z,43.60
2019-05-26T20:08:13.567Z,43.74
2019-05-26T20:10:40.211Z,43.78
2019-05-26T20:13:06.796Z,43.77
2019-05-26T20:15:33.415Z,44.10
2019-05-26T20:18:00.060Z,44.10
2019-05-26T20:20:26.825Z,44.15
2019-05-26T20:22:53.450Z,44.25
2019-05-26T20:25:20.044Z,44.25
2019-05-26T20:27:46.644Z,44.29
2019-05-26T20:30:13.260Z,44.46
2019-05-26T20:32:39.957Z,44.46
2019-05-26T20:35:06.603Z,44.55
2019-05-26T20:37:33.233Z,44.59
2019-05-26T20:39:59.862Z,44.64
2019-05-26T20:42:26.571Z,44.79
2019-05-26T20:44:53.236Z,44.83
2019-05-26T20:47:19.868Z,45.02
2019-05-26T20:49:46.496Z,45.00
2019-05-26T20:52:13.179Z,44.91
2019-05-26T20:54:39.785Z,44.98
2019-05-26T20:57:06.387Z,44.99
2019-05-26T20:59:33.010Z,45.10
2019-05-26T21:01:59.588Z,45.10
2019-05-26T21:04:26.221Z,45.28
2019-05-26T21:06:52.848Z,45.39
2019-05-26T21:09:19.499Z,45.40
2019-05-26T21:11:46.127Z,45.46
2019-05-26T21:14:12.772Z,45.62
2019-05-26T21:16:39.414Z,45.63
2019-05-26T21:19:05.995Z,45.73
2019-05-26T21:21:32.630Z,45.78
2019-05-26T21:23:59.423Z,45.90
2019-05-26T21:26:26.006Z,46.00
2019-05-26T21:28:52.617Z,46.38
2019-05-26T21:31:19.223Z,46.44
2019-05-26T21:33:45.846Z,46.54
2019-05-26T21:36:12.467Z,46.55
2019-05-26T21:38:39.072Z,46.75
2019-05-26T21:41:05.725Z,46.84
2019-05-26T21:43:32.514Z,47.16
2019-05-26T21:45:59.117Z,47.30
2019-05-26T21:48:25.771Z,47.18
2019-05-26T21:50:52.447Z,47.63
2019-05-26T21:53:19.043Z,47.62
2019-05-26T21:55:45.660Z,47.77
2019-05-26T21:58:12.285Z,47.84
2019-05-26T22:00:38.899Z,47.80
2019-05-26T22:03:05.543Z,47.92
2019-05-26T22:05:32.301Z,48.00
2019-05-26T22:07:58.919Z,48.22
2019-05-26T22:10:25.543Z,48.42
2019-05-26T22:12:52.143Z,48.57
2019-05-26T22:15:18.798Z,48.53
2019-05-26T22:17:45.442Z,48.74
2019-05-26T22:20:12.034Z,48.83
2019-05-26T22:22:38.686Z,49.46
2019-05-26T22:25:05.285Z,49.54
2019-05-26T22:27:31.893Z,49.53
2019-05-26T22:29:58.512Z,49.72
2019-05-26T22:32:25.105Z,50.01
2019-05-26T22:34:51.801Z,49.87
2019-05-26T22:37:18.419Z,50.01
2019-05-26T22:39:45.023Z,50.10
2019-05-26T22:42:11.639Z,50.38
2019-05-26T22:44:38.241Z,50.72
2019-05-26T22:47:04.906Z,50.87
2019-05-26T22:49:31.498Z,50.51
2019-05-26T22:51:58.113Z,50.67
2019-05-26T22:54:24.764Z,51.52
2019-05-26T22:56:51.369Z,50.91
2019-05-26T22:59:17.959Z,51.85
2019-05-26T23:01:44.611Z,51.60
2019-05-26T23:04:12.047Z,51.49
2019-05-26T23:06:38.695Z,51.53
2019-05-26T23:09:05.291Z,51.60
2019-05-26T23:11:31.888Z,51.69
2019-05-26T23:13:58.530Z,51.56
2019-05-26T23:16:25.120Z,51.92
2019-05-26T23:18:51.752Z,52.11
2019-05-26T23:21:18.369Z,52.37
2019-05-26T23:23:44.964Z,52.41
2019-05-26T23:26:11.583Z,52.27
2019-05-26T23:28:38.213Z,52.56
2019-05-26T23:31:04.803Z,52.41
2019-05-26T23:33:31.396Z,52.40
2019-05-26T23:35:58.033Z,52.69
2019-05-26T23:38:24.680Z,52.76
2019-05-26T23:40:51.274Z,52.87
2019-05-26T23:43:17.877Z,52.70
2019-05-26T23:45:44.498Z,52.81
2019-05-26T23:48:11.146Z,52.97
2019-05-26T23:50:37.894Z,53.26
2019-05-26T23:53:04.506Z,52.91
2019-05-26T23:55:31.101Z,52.92
2019-05-26T23:57:57.755Z,52.95
